Watkins Glen, New York
Current Conditions -  °F | °C
As of 10:53 AM on Monday 24 Nov 2014 (Local Time) from KELM Reporting Station
Few Clouds Few Clouds  
Wind Chill: 67°   Ceiling: Unl
Heat Index: 67°   Visibility: 10mi
Dew Point: 54°   Wind: 20mph
Humidity: 63%   Direction: 200°SSW
Pressure: 29.44"   Gusts: 31mph
Location:  42.38°N, 76.87°W
Report Text: KELM 241553Z 20017G27KT 10SM FEW065 19/12 A2944 RMK AO2 PK WND 21029/1500 SLP967 T01940122
Loading
Personal Weather Stations






























Interactive Weather Map New forecast layout! Learn more

10-Day Weather Forecast

Advertisements
Track Severe Weather on mobile